sensor_id;sensor_type;location;lat;lon;timestamp;P1;durP1;ratioP1;P2;durP2;ratioP2
25549;SDS011;13444;50.562;7.262;2023-04-30T00:00:42;57.92;;;35.90;;
25549;SDS011;13444;50.562;7.262;2023-04-30T00:03:07;54.17;;;34.75;;
25549;SDS011;13444;50.562;7.262;2023-04-30T00:05:33;49.28;;;33.00;;
25549;SDS011;13444;50.562;7.262;2023-04-30T00:07:58;60.17;;;34.67;;
25549;SDS011;13444;50.562;7.262;2023-04-30T00:10:24;52.63;;;34.55;;
25549;SDS011;13444;50.562;7.262;2023-04-30T00:12:49;55.92;;;33.63;;
25549;SDS011;13444;50.562;7.262;2023-04-30T00:15:15;50.05;;;32.45;;
25549;SDS011;13444;50.562;7.262;2023-04-30T00:17:40;53.25;;;33.75;;
25549;SDS011;13444;50.562;7.262;2023-04-30T00:20:06;55.13;;;34.42;;
25549;SDS011;13444;50.562;7.262;2023-04-30T00:22:32;52.65;;;33.05;;
25549;SDS011;13444;50.562;7.262;2023-04-30T00:24:57;51.30;;;33.55;;
25549;SDS011;13444;50.562;7.262;2023-04-30T00:27:23;51.20;;;31.75;;
25549;SDS011;13444;50.562;7.262;2023-04-30T00:29:48;50.15;;;32.30;;
25549;SDS011;13444;50.562;7.262;2023-04-30T00:32:14;46.45;;;30.63;;
25549;SDS011;13444;50.562;7.262;2023-04-30T00:34:40;47.88;;;31.75;;
25549;SDS011;13444;50.562;7.262;2023-04-30T00:37:05;44.45;;;30.40;;
25549;SDS011;13444;50.562;7.262;2023-04-30T00:39:31;45.28;;;30.08;;
25549;SDS011;13444;50.562;7.262;2023-04-30T00:41:56;50.42;;;33.08;;
25549;SDS011;13444;50.562;7.262;2023-04-30T00:44:22;49.17;;;31.92;;
25549;SDS011;13444;50.562;7.262;2023-04-30T00:46:47;46.20;;;31.15;;
25549;SDS011;13444;50.562;7.262;2023-04-30T00:49:13;46.80;;;30.63;;
25549;SDS011;13444;50.562;7.262;2023-04-30T00:51:39;46.90;;;31.15;;
25549;SDS011;13444;50.562;7.262;2023-04-30T00:54:06;42.45;;;28.88;;
25549;SDS011;13444;50.562;7.262;2023-04-30T00:56:32;43.45;;;29.42;;
25549;SDS011;13444;50.562;7.262;2023-04-30T00:58:58;48.50;;;31.60;;
25549;SDS011;13444;50.562;7.262;2023-04-30T01:01:24;42.33;;;27.73;;
25549;SDS011;13444;50.562;7.262;2023-04-30T01:03:53;44.90;;;28.42;;
25549;SDS011;13444;50.562;7.262;2023-04-30T01:06:19;41.15;;;29.50;;
25549;SDS011;13444;50.562;7.262;2023-04-30T01:08:44;44.70;;;29.67;;
25549;SDS011;13444;50.562;7.262;2023-04-30T01:14:03;43.80;;;28.75;;
25549;SDS011;13444;50.562;7.262;2023-04-30T01:16:41;45.80;;;28.85;;
25549;SDS011;13444;50.562;7.262;2023-04-30T01:21:59;45.17;;;30.95;;
25549;SDS011;13444;50.562;7.262;2023-04-30T01:24:42;49.72;;;31.23;;
25549;SDS011;13444;50.562;7.262;2023-04-30T01:30:19;46.05;;;30.23;;
25549;SDS011;13444;50.562;7.262;2023-04-30T01:32:46;45.05;;;30.50;;
25549;SDS011;13444;50.562;7.262;2023-04-30T01:35:12;45.92;;;30.10;;
25549;SDS011;13444;50.562;7.262;2023-04-30T01:37:51;47.55;;;31.63;;
25549;SDS011;13444;50.562;7.262;2023-04-30T01:40:42;44.70;;;31.60;;
25549;SDS011;13444;50.562;7.262;2023-04-30T01:43:18;46.33;;;31.88;;
25549;SDS011;13444;50.562;7.262;2023-04-30T01:46:11;50.60;;;32.95;;
25549;SDS011;13444;50.562;7.262;2023-04-30T01:48:47;49.25;;;31.80;;
25549;SDS011;13444;50.562;7.262;2023-04-30T01:51:40;46.78;;;30.58;;
25549;SDS011;13444;50.562;7.262;2023-04-30T01:54:29;51.28;;;32.05;;
25549;SDS011;13444;50.562;7.262;2023-04-30T01:57:20;48.40;;;31.05;;
25549;SDS011;13444;50.562;7.262;2023-04-30T02:00:01;49.58;;;30.95;;
25549;SDS011;13444;50.562;7.262;2023-04-30T02:02:28;46.90;;;29.67;;
25549;SDS011;13444;50.562;7.262;2023-04-30T02:04:54;45.00;;;30.13;;
25549;SDS011;13444;50.562;7.262;2023-04-30T02:07:25;46.35;;;31.48;;
25549;SDS011;13444;50.562;7.262;2023-04-30T02:10:02;47.85;;;31.23;;
25549;SDS011;13444;50.562;7.262;2023-04-30T02:12:28;46.28;;;30.13;;
25549;SDS011;13444;50.562;7.262;2023-04-30T02:14:54;45.50;;;29.80;;
25549;SDS011;13444;50.562;7.262;2023-04-30T02:17:19;43.88;;;29.10;;
25549;SDS011;13444;50.562;7.262;2023-04-30T02:19:45;42.65;;;28.60;;
25549;SDS011;13444;50.562;7.262;2023-04-30T02:22:10;44.08;;;28.02;;
25549;SDS011;13444;50.562;7.262;2023-04-30T02:24:36;41.25;;;29.38;;
25549;SDS011;13444;50.562;7.262;2023-04-30T02:27:01;46.53;;;29.35;;
25549;SDS011;13444;50.562;7.262;2023-04-30T02:29:27;41.63;;;28.23;;
25549;SDS011;13444;50.562;7.262;2023-04-30T02:31:53;38.72;;;27.02;;
25549;SDS011;13444;50.562;7.262;2023-04-30T02:34:18;33.90;;;24.77;;
25549;SDS011;13444;50.562;7.262;2023-04-30T02:36:44;35.35;;;25.63;;
25549;SDS011;13444;50.562;7.262;2023-04-30T02:39:09;36.63;;;25.45;;
25549;SDS011;13444;50.562;7.262;2023-04-30T02:41:35;41.95;;;27.13;;
25549;SDS011;13444;50.562;7.262;2023-04-30T02:44:00;44.17;;;28.63;;
25549;SDS011;13444;50.562;7.262;2023-04-30T02:46:27;48.28;;;28.40;;
25549;SDS011;13444;50.562;7.262;2023-04-30T02:48:52;41.75;;;28.08;;
25549;SDS011;13444;50.562;7.262;2023-04-30T02:51:18;39.63;;;28.52;;
25549;SDS011;13444;50.562;7.262;2023-04-30T02:53:43;43.92;;;29.00;;
25549;SDS011;13444;50.562;7.262;2023-04-30T02:56:09;42.00;;;27.42;;
25549;SDS011;13444;50.562;7.262;2023-04-30T02:58:34;45.22;;;29.25;;
25549;SDS011;13444;50.562;7.262;2023-04-30T03:01:00;42.15;;;27.23;;
25549;SDS011;13444;50.562;7.262;2023-04-30T03:03:25;41.22;;;27.42;;
25549;SDS011;13444;50.562;7.262;2023-04-30T03:05:51;39.90;;;26.60;;
25549;SDS011;13444;50.562;7.262;2023-04-30T03:08:16;41.85;;;27.20;;
25549;SDS011;13444;50.562;7.262;2023-04-30T03:10:42;40.17;;;26.55;;
25549;SDS011;13444;50.562;7.262;2023-04-30T03:13:07;42.72;;;27.88;;
25549;SDS011;13444;50.562;7.262;2023-04-30T03:15:33;46.60;;;29.17;;
25549;SDS011;13444;50.562;7.262;2023-04-30T03:17:58;43.60;;;29.10;;
25549;SDS011;13444;50.562;7.262;2023-04-30T03:20:24;42.08;;;27.63;;
25549;SDS011;13444;50.562;7.262;2023-04-30T03:22:49;44.88;;;28.73;;
25549;SDS011;13444;50.562;7.262;2023-04-30T03:25:15;43.63;;;28.85;;
25549;SDS011;13444;50.562;7.262;2023-04-30T03:27:41;50.70;;;31.85;;
25549;SDS011;13444;50.562;7.262;2023-04-30T03:30:06;48.15;;;31.35;;
25549;SDS011;13444;50.562;7.262;2023-04-30T03:32:32;43.42;;;28.98;;
25549;SDS011;13444;50.562;7.262;2023-04-30T03:34:58;46.13;;;30.50;;
25549;SDS011;13444;50.562;7.262;2023-04-30T03:37:24;42.35;;;27.20;;
25549;SDS011;13444;50.562;7.262;2023-04-30T03:39:49;45.38;;;28.83;;
25549;SDS011;13444;50.562;7.262;2023-04-30T03:42:15;37.97;;;27.00;;
25549;SDS011;13444;50.562;7.262;2023-04-30T03:44:40;41.00;;;27.23;;
25549;SDS011;13444;50.562;7.262;2023-04-30T03:47:06;39.38;;;26.55;;
25549;SDS011;13444;50.562;7.262;2023-04-30T03:49:32;35.42;;;23.50;;
25549;SDS011;13444;50.562;7.262;2023-04-30T03:51:57;37.97;;;25.50;;
25549;SDS011;13444;50.562;7.262;2023-04-30T03:54:23;38.40;;;25.13;;
25549;SDS011;13444;50.562;7.262;2023-04-30T03:56:48;33.05;;;23.10;;
25549;SDS011;13444;50.562;7.262;2023-04-30T03:59:14;34.00;;;23.00;;
25549;SDS011;13444;50.562;7.262;2023-04-30T04:01:40;35.55;;;24.20;;
25549;SDS011;13444;50.562;7.262;2023-04-30T04:04:05;34.17;;;23.75;;
25549;SDS011;13444;50.562;7.262;2023-04-30T04:06:31;41.80;;;26.90;;
25549;SDS011;13444;50.562;7.262;2023-04-30T04:08:57;38.53;;;25.73;;
25549;SDS011;13444;50.562;7.262;2023-04-30T04:11:22;40.63;;;27.35;;
25549;SDS011;13444;50.562;7.262;2023-04-30T04:13:48;39.92;;;26.90;;
25549;SDS011;13444;50.562;7.262;2023-04-30T04:16:14;43.67;;;28.88;;
25549;SDS011;13444;50.562;7.262;2023-04-30T04:18:39;44.03;;;28.30;;
25549;SDS011;13444;50.562;7.262;2023-04-30T04:21:05;48.55;;;30.73;;
25549;SDS011;13444;50.562;7.262;2023-04-30T04:23:31;51.90;;;33.33;;
25549;SDS011;13444;50.562;7.262;2023-04-30T04:25:57;55.75;;;33.13;;
25549;SDS011;13444;50.562;7.262;2023-04-30T04:28:22;54.50;;;32.85;;
25549;SDS011;13444;50.562;7.262;2023-04-30T04:30:48;54.33;;;32.85;;
25549;SDS011;13444;50.562;7.262;2023-04-30T04:33:13;59.65;;;34.45;;
25549;SDS011;13444;50.562;7.262;2023-04-30T04:35:39;58.33;;;34.60;;
25549;SDS011;13444;50.562;7.262;2023-04-30T04:38:04;63.60;;;35.70;;
25549;SDS011;13444;50.562;7.262;2023-04-30T04:40:31;63.10;;;36.25;;
25549;SDS011;13444;50.562;7.262;2023-04-30T04:42:56;66.40;;;37.45;;
25549;SDS011;13444;50.562;7.262;2023-04-30T04:45:22;67.88;;;38.65;;
25549;SDS011;13444;50.562;7.262;2023-04-30T04:47:48;66.95;;;39.47;;
25549;SDS011;13444;50.562;7.262;2023-04-30T04:50:13;69.28;;;40.30;;
25549;SDS011;13444;50.562;7.262;2023-04-30T04:52:39;73.70;;;40.58;;
25549;SDS011;13444;50.562;7.262;2023-04-30T04:55:04;73.03;;;42.58;;
25549;SDS011;13444;50.562;7.262;2023-04-30T04:57:31;72.28;;;40.75;;
25549;SDS011;13444;50.562;7.262;2023-04-30T04:59:57;63.15;;;38.33;;
25549;SDS011;13444;50.562;7.262;2023-04-30T05:02:22;66.15;;;39.33;;
25549;SDS011;13444;50.562;7.262;2023-04-30T05:04:48;64.80;;;40.90;;
25549;SDS011;13444;50.562;7.262;2023-04-30T05:07:18;69.28;;;39.70;;
25549;SDS011;13444;50.562;7.262;2023-04-30T05:09:44;63.03;;;39.20;;
25549;SDS011;13444;50.562;7.262;2023-04-30T05:12:10;70.25;;;40.63;;
25549;SDS011;13444;50.562;7.262;2023-04-30T05:14:36;63.60;;;41.25;;
25549;SDS011;13444;50.562;7.262;2023-04-30T05:17:02;64.13;;;39.75;;
25549;SDS011;13444;50.562;7.262;2023-04-30T05:19:27;65.15;;;41.28;;
25549;SDS011;13444;50.562;7.262;2023-04-30T05:21:53;73.15;;;43.17;;
25549;SDS011;13444;50.562;7.262;2023-04-30T05:24:18;69.05;;;42.42;;
25549;SDS011;13444;50.562;7.262;2023-04-30T05:26:44;87.60;;;52.88;;
25549;SDS011;13444;50.562;7.262;2023-04-30T05:29:10;80.72;;;47.40;;
25549;SDS011;13444;50.562;7.262;2023-04-30T05:31:36;71.18;;;43.35;;
25549;SDS011;13444;50.562;7.262;2023-04-30T05:34:01;80.10;;;44.65;;
25549;SDS011;13444;50.562;7.262;2023-04-30T05:36:27;74.18;;;45.85;;
25549;SDS011;13444;50.562;7.262;2023-04-30T05:38:53;72.53;;;42.90;;
25549;SDS011;13444;50.562;7.262;2023-04-30T05:41:19;71.68;;;43.70;;
25549;SDS011;13444;50.562;7.262;2023-04-30T05:43:45;69.05;;;43.13;;
25549;SDS011;13444;50.562;7.262;2023-04-30T05:46:11;72.80;;;43.58;;
25549;SDS011;13444;50.562;7.262;2023-04-30T05:48:37;71.05;;;44.47;;
25549;SDS011;13444;50.562;7.262;2023-04-30T05:51:03;68.35;;;44.08;;
25549;SDS011;13444;50.562;7.262;2023-04-30T05:53:30;70.00;;;41.70;;
25549;SDS011;13444;50.562;7.262;2023-04-30T05:55:56;71.75;;;44.63;;
25549;SDS011;13444;50.562;7.262;2023-04-30T05:58:21;71.40;;;43.33;;
25549;SDS011;13444;50.562;7.262;2023-04-30T06:00:47;70.22;;;42.70;;
25549;SDS011;13444;50.562;7.262;2023-04-30T06:03:15;85.95;;;46.30;;
25549;SDS011;13444;50.562;7.262;2023-04-30T06:05:40;67.75;;;42.75;;
25549;SDS011;13444;50.562;7.262;2023-04-30T06:08:06;67.97;;;42.28;;
25549;SDS011;13444;50.562;7.262;2023-04-30T06:10:31;65.85;;;42.67;;
25549;SDS011;13444;50.562;7.262;2023-04-30T06:12:57;66.65;;;39.67;;
25549;SDS011;13444;50.562;7.262;2023-04-30T06:15:22;61.95;;;40.75;;
25549;SDS011;13444;50.562;7.262;2023-04-30T06:17:48;59.60;;;40.33;;
25549;SDS011;13444;50.562;7.262;2023-04-30T06:20:13;61.35;;;41.33;;
25549;SDS011;13444;50.562;7.262;2023-04-30T06:22:40;59.25;;;36.85;;
25549;SDS011;13444;50.562;7.262;2023-04-30T06:25:05;64.60;;;39.65;;
25549;SDS011;13444;50.562;7.262;2023-04-30T06:27:31;62.83;;;40.92;;
25549;SDS011;13444;50.562;7.262;2023-04-30T06:29:57;60.30;;;39.92;;
25549;SDS011;13444;50.562;7.262;2023-04-30T06:32:24;63.35;;;39.60;;
25549;SDS011;13444;50.562;7.262;2023-04-30T06:34:50;54.03;;;37.38;;
25549;SDS011;13444;50.562;7.262;2023-04-30T06:37:16;56.20;;;36.45;;
25549;SDS011;13444;50.562;7.262;2023-04-30T06:39:41;59.67;;;38.38;;
25549;SDS011;13444;50.562;7.262;2023-04-30T06:42:07;57.42;;;39.08;;
25549;SDS011;13444;50.562;7.262;2023-04-30T06:44:32;58.97;;;39.15;;
25549;SDS011;13444;50.562;7.262;2023-04-30T06:46:58;57.83;;;37.65;;
25549;SDS011;13444;50.562;7.262;2023-04-30T06:49:23;60.90;;;38.38;;
25549;SDS011;13444;50.562;7.262;2023-04-30T06:51:49;59.28;;;38.88;;
25549;SDS011;13444;50.562;7.262;2023-04-30T06:54:14;57.05;;;38.65;;
25549;SDS011;13444;50.562;7.262;2023-04-30T06:56:40;58.85;;;39.55;;
25549;SDS011;13444;50.562;7.262;2023-04-30T06:59:07;62.35;;;38.65;;
25549;SDS011;13444;50.562;7.262;2023-04-30T07:01:33;59.85;;;39.33;;
25549;SDS011;13444;50.562;7.262;2023-04-30T07:03:59;60.75;;;38.10;;
25549;SDS011;13444;50.562;7.262;2023-04-30T07:06:25;51.45;;;33.90;;
25549;SDS011;13444;50.562;7.262;2023-04-30T07:08:51;50.58;;;34.22;;
25549;SDS011;13444;50.562;7.262;2023-04-30T07:11:16;48.50;;;34.55;;
25549;SDS011;13444;50.562;7.262;2023-04-30T07:13:42;45.80;;;32.45;;
25549;SDS011;13444;50.562;7.262;2023-04-30T07:16:07;46.40;;;32.72;;
25549;SDS011;13444;50.562;7.262;2023-04-30T07:18:34;44.60;;;32.65;;
25549;SDS011;13444;50.562;7.262;2023-04-30T07:21:00;49.63;;;33.83;;
25549;SDS011;13444;50.562;7.262;2023-04-30T07:23:25;52.53;;;35.08;;
25549;SDS011;13444;50.562;7.262;2023-04-30T07:25:51;48.63;;;33.28;;
25549;SDS011;13444;50.562;7.262;2023-04-30T07:28:16;47.00;;;33.65;;
25549;SDS011;13444;50.562;7.262;2023-04-30T07:30:42;48.30;;;32.70;;
25549;SDS011;13444;50.562;7.262;2023-04-30T07:33:08;42.80;;;29.30;;
25549;SDS011;13444;50.562;7.262;2023-04-30T07:35:33;43.15;;;32.10;;
25549;SDS011;13444;50.562;7.262;2023-04-30T07:37:59;39.65;;;29.38;;
25549;SDS011;13444;50.562;7.262;2023-04-30T07:40:24;41.83;;;31.23;;
25549;SDS011;13444;50.562;7.262;2023-04-30T07:42:50;39.90;;;29.00;;
25549;SDS011;13444;50.562;7.262;2023-04-30T07:45:16;41.13;;;29.65;;
25549;SDS011;13444;50.562;7.262;2023-04-30T07:47:42;40.47;;;28.77;;
25549;SDS011;13444;50.562;7.262;2023-04-30T07:50:08;40.03;;;28.17;;
25549;SDS011;13444;50.562;7.262;2023-04-30T07:52:34;40.53;;;29.10;;
25549;SDS011;13444;50.562;7.262;2023-04-30T07:54:59;38.25;;;29.13;;
25549;SDS011;13444;50.562;7.262;2023-04-30T07:57:25;37.70;;;28.80;;
25549;SDS011;13444;50.562;7.262;2023-04-30T07:59:52;38.47;;;28.27;;
25549;SDS011;13444;50.562;7.262;2023-04-30T08:02:17;37.40;;;26.45;;
25549;SDS011;13444;50.562;7.262;2023-04-30T08:04:43;33.28;;;25.80;;
25549;SDS011;13444;50.562;7.262;2023-04-30T08:07:08;34.63;;;26.60;;
25549;SDS011;13444;50.562;7.262;2023-04-30T08:09:34;34.80;;;27.38;;
25549;SDS011;13444;50.562;7.262;2023-04-30T08:11:59;37.42;;;25.88;;
25549;SDS011;13444;50.562;7.262;2023-04-30T08:14:26;41.22;;;27.90;;
25549;SDS011;13444;50.562;7.262;2023-04-30T08:16:51;38.70;;;27.30;;
25549;SDS011;13444;50.562;7.262;2023-04-30T08:19:17;34.10;;;26.10;;
25549;SDS011;13444;50.562;7.262;2023-04-30T08:21:42;29.33;;;22.35;;
25549;SDS011;13444;50.562;7.262;2023-04-30T08:24:08;27.65;;;20.50;;
25549;SDS011;13444;50.562;7.262;2023-04-30T08:26:33;27.63;;;21.40;;
25549;SDS011;13444;50.562;7.262;2023-04-30T08:28:59;24.85;;;18.88;;
25549;SDS011;13444;50.562;7.262;2023-04-30T08:31:24;21.13;;;16.38;;
25549;SDS011;13444;50.562;7.262;2023-04-30T08:33:50;20.30;;;15.98;;
25549;SDS011;13444;50.562;7.262;2023-04-30T08:36:15;21.40;;;16.73;;
25549;SDS011;13444;50.562;7.262;2023-04-30T08:38:41;17.80;;;14.45;;
25549;SDS011;13444;50.562;7.262;2023-04-30T08:41:10;18.05;;;13.63;;
25549;SDS011;13444;50.562;7.262;2023-04-30T08:43:38;19.92;;;15.52;;
25549;SDS011;13444;50.562;7.262;2023-04-30T08:46:04;23.67;;;15.80;;
25549;SDS011;13444;50.562;7.262;2023-04-30T08:48:30;17.35;;;13.43;;
25549;SDS011;13444;50.562;7.262;2023-04-30T08:51:00;17.83;;;12.63;;
25549;SDS011;13444;50.562;7.262;2023-04-30T08:53:27;14.88;;;12.70;;
25549;SDS011;13444;50.562;7.262;2023-04-30T08:55:53;11.23;;;9.57;;
25549;SDS011;13444;50.562;7.262;2023-04-30T08:58:19;17.40;;;12.13;;
25549;SDS011;13444;50.562;7.262;2023-04-30T09:00:45;13.57;;;10.88;;
25549;SDS011;13444;50.562;7.262;2023-04-30T09:03:10;11.38;;;9.07;;
25549;SDS011;13444;50.562;7.262;2023-04-30T09:05:36;9.90;;;7.97;;
25549;SDS011;13444;50.562;7.262;2023-04-30T09:08:05;10.30;;;8.60;;
25549;SDS011;13444;50.562;7.262;2023-04-30T09:10:32;8.88;;;6.65;;
25549;SDS011;13444;50.562;7.262;2023-04-30T09:15:31;6.85;;;5.07;;
25549;SDS011;13444;50.562;7.262;2023-04-30T09:18:06;4.55;;;3.85;;
25549;SDS011;13444;50.562;7.262;2023-04-30T09:20:36;5.40;;;4.28;;
25549;SDS011;13444;50.562;7.262;2023-04-30T09:23:10;4.57;;;2.75;;
25549;SDS011;13444;50.562;7.262;2023-04-30T09:25:39;4.50;;;4.05;;
25549;SDS011;13444;50.562;7.262;2023-04-30T09:28:09;5.15;;;3.50;;
25549;SDS011;13444;50.562;7.262;2023-04-30T09:30:36;4.97;;;3.90;;
25549;SDS011;13444;50.562;7.262;2023-04-30T09:33:02;4.63;;;3.40;;
25549;SDS011;13444;50.562;7.262;2023-04-30T09:35:29;4.28;;;3.47;;
25549;SDS011;13444;50.562;7.262;2023-04-30T09:37:59;7.13;;;3.33;;
25549;SDS011;13444;50.562;7.262;2023-04-30T09:40:59;2.53;;;2.13;;
25549;SDS011;13444;50.562;7.262;2023-04-30T09:43:18;2.47;;;1.60;;
25549;SDS011;13444;50.562;7.262;2023-04-30T09:45:44;2.15;;;1.30;;
25549;SDS011;13444;50.562;7.262;2023-04-30T09:48:25;2.70;;;1.70;;
25549;SDS011;13444;50.562;7.262;2023-04-30T09:50:54;0.98;;;0.90;;
25549;SDS011;13444;50.562;7.262;2023-04-30T09:53:20;1.65;;;0.82;;
25549;SDS011;13444;50.562;7.262;2023-04-30T09:55:46;3.85;;;1.02;;
25549;SDS011;13444;50.562;7.262;2023-04-30T09:58:14;3.00;;;0.93;;
25549;SDS011;13444;50.562;7.262;2023-04-30T10:00:41;2.47;;;0.90;;
25549;SDS011;13444;50.562;7.262;2023-04-30T10:03:13;1.67;;;0.77;;
25549;SDS011;13444;50.562;7.262;2023-04-30T10:08:06;1.30;;;1.02;;
25549;SDS011;13444;50.562;7.262;2023-04-30T10:10:37;3.85;;;1.35;;
25549;SDS011;13444;50.562;7.262;2023-04-30T10:13:07;0.82;;;0.70;;
25549;SDS011;13444;50.562;7.262;2023-04-30T10:15:39;0.70;;;0.70;;
25549;SDS011;13444;50.562;7.262;2023-04-30T10:18:10;1.30;;;0.80;;
25549;SDS011;13444;50.562;7.262;2023-04-30T10:20:41;2.45;;;0.80;;
25549;SDS011;13444;50.562;7.262;2023-04-30T10:23:10;1.25;;;0.75;;
25549;SDS011;13444;50.562;7.262;2023-04-30T10:25:37;1.55;;;0.90;;
25549;SDS011;13444;50.562;7.262;2023-04-30T10:28:04;1.45;;;0.98;;
25549;SDS011;13444;50.562;7.262;2023-04-30T10:30:32;1.30;;;0.75;;
25549;SDS011;13444;50.562;7.262;2023-04-30T10:33:18;1.52;;;0.80;;
25549;SDS011;13444;50.562;7.262;2023-04-30T10:35:56;1.55;;;0.60;;
25549;SDS011;13444;50.562;7.262;2023-04-30T10:38:25;1.25;;;0.77;;
25549;SDS011;13444;50.562;7.262;2023-04-30T10:40:57;0.88;;;0.68;;
25549;SDS011;13444;50.562;7.262;2023-04-30T10:43:25;1.10;;;0.63;;
25549;SDS011;13444;50.562;7.262;2023-04-30T10:45:51;1.40;;;0.68;;
25549;SDS011;13444;50.562;7.262;2023-04-30T10:48:17;2.47;;;0.90;;
25549;SDS011;13444;50.562;7.262;2023-04-30T10:50:51;1.38;;;0.73;;
25549;SDS011;13444;50.562;7.262;2023-04-30T10:53:20;0.50;;;0.50;;
25549;SDS011;13444;50.562;7.262;2023-04-30T10:55:47;3.67;;;0.80;;
25549;SDS011;13444;50.562;7.262;2023-04-30T11:01:01;1.15;;;0.63;;
25549;SDS011;13444;50.562;7.262;2023-04-30T11:03:31;0.55;;;0.45;;
25549;SDS011;13444;50.562;7.262;2023-04-30T11:06:08;0.95;;;0.60;;
25549;SDS011;13444;50.562;7.262;2023-04-30T11:08:43;1.13;;;0.80;;
25549;SDS011;13444;50.562;7.262;2023-04-30T11:11:09;1.45;;;0.60;;
25549;SDS011;13444;50.562;7.262;2023-04-30T11:13:39;6.82;;;1.55;;
25549;SDS011;13444;50.562;7.262;2023-04-30T11:16:07;5.90;;;0.80;;
25549;SDS011;13444;50.562;7.262;2023-04-30T11:18:33;2.15;;;0.40;;
25549;SDS011;13444;50.562;7.262;2023-04-30T11:21:07;0.93;;;0.50;;
25549;SDS011;13444;50.562;7.262;2023-04-30T11:23:33;0.30;;;0.30;;
25549;SDS011;13444;50.562;7.262;2023-04-30T11:25:59;1.48;;;0.65;;
25549;SDS011;13444;50.562;7.262;2023-04-30T11:28:25;1.25;;;0.40;;
25549;SDS011;13444;50.562;7.262;2023-04-30T11:30:55;0.50;;;0.30;;
25549;SDS011;13444;50.562;7.262;2023-04-30T11:33:24;1.35;;;0.50;;
25549;SDS011;13444;50.562;7.262;2023-04-30T11:35:50;0.30;;;0.20;;
25549;SDS011;13444;50.562;7.262;2023-04-30T11:40:53;0.52;;;0.30;;
25549;SDS011;13444;50.562;7.262;2023-04-30T11:45:58;1.75;;;0.43;;
25549;SDS011;13444;50.562;7.262;2023-04-30T11:48:29;0.75;;;0.30;;
25549;SDS011;13444;50.562;7.262;2023-04-30T11:50:59;0.43;;;0.20;;
25549;SDS011;13444;50.562;7.262;2023-04-30T11:53:27;1.65;;;0.30;;
25549;SDS011;13444;50.562;7.262;2023-04-30T11:55:53;0.30;;;0.30;;
25549;SDS011;13444;50.562;7.262;2023-04-30T11:58:19;0.20;;;0.20;;
25549;SDS011;13444;50.562;7.262;2023-04-30T12:00:45;0.30;;;0.30;;
25549;SDS011;13444;50.562;7.262;2023-04-30T12:03:12;1.23;;;0.52;;
25549;SDS011;13444;50.562;7.262;2023-04-30T12:05:39;0.43;;;0.32;;
25549;SDS011;13444;50.562;7.262;2023-04-30T12:08:06;0.40;;;0.40;;
25549;SDS011;13444;50.562;7.262;2023-04-30T12:10:33;3.40;;;0.35;;
25549;SDS011;13444;50.562;7.262;2023-04-30T12:12:59;0.63;;;0.40;;
25549;SDS011;13444;50.562;7.262;2023-04-30T12:15:25;0.30;;;0.30;;
25549;SDS011;13444;50.562;7.262;2023-04-30T12:17:51;0.60;;;0.30;;
25549;SDS011;13444;50.562;7.262;2023-04-30T12:20:18;0.40;;;0.30;;
25549;SDS011;13444;50.562;7.262;2023-04-30T12:22:45;0.85;;;0.40;;
25549;SDS011;13444;50.562;7.262;2023-04-30T12:25:12;2.15;;;0.25;;
25549;SDS011;13444;50.562;7.262;2023-04-30T12:27:52;0.93;;;0.47;;
25549;SDS011;13444;50.562;7.262;2023-04-30T12:30:22;1.20;;;0.50;;
25549;SDS011;13444;50.562;7.262;2023-04-30T12:32:51;0.28;;;0.28;;
25549;SDS011;13444;50.562;7.262;2023-04-30T12:35:18;0.50;;;0.40;;
25549;SDS011;13444;50.562;7.262;2023-04-30T12:37:45;0.60;;;0.30;;
25549;SDS011;13444;50.562;7.262;2023-04-30T12:40:14;0.30;;;0.30;;
25549;SDS011;13444;50.562;7.262;2023-04-30T12:42:40;0.65;;;0.32;;
25549;SDS011;13444;50.562;7.262;2023-04-30T12:45:07;0.38;;;0.25;;
25549;SDS011;13444;50.562;7.262;2023-04-30T12:47:37;1.02;;;0.40;;
25549;SDS011;13444;50.562;7.262;2023-04-30T12:50:09;0.30;;;0.30;;
25549;SDS011;13444;50.562;7.262;2023-04-30T12:52:37;0.30;;;0.30;;
25549;SDS011;13444;50.562;7.262;2023-04-30T12:55:14;0.32;;;0.30;;
25549;SDS011;13444;50.562;7.262;2023-04-30T12:57:40;5.55;;;0.60;;
25549;SDS011;13444;50.562;7.262;2023-04-30T13:00:06;0.40;;;0.35;;
25549;SDS011;13444;50.562;7.262;2023-04-30T13:02:32;9.20;;;0.95;;
25549;SDS011;13444;50.562;7.262;2023-04-30T13:04:57;0.60;;;0.50;;
25549;SDS011;13444;50.562;7.262;2023-04-30T13:07:23;0.93;;;0.40;;
25549;SDS011;13444;50.562;7.262;2023-04-30T13:09:49;1.60;;;0.63;;
25549;SDS011;13444;50.562;7.262;2023-04-30T13:12:14;7.72;;;1.30;;
25549;SDS011;13444;50.562;7.262;2023-04-30T13:14:40;2.90;;;0.52;;
25549;SDS011;13444;50.562;7.262;2023-04-30T13:17:06;1.25;;;0.43;;
25549;SDS011;13444;50.562;7.262;2023-04-30T13:19:33;1.45;;;0.35;;
25549;SDS011;13444;50.562;7.262;2023-04-30T13:21:59;0.52;;;0.30;;
25549;SDS011;13444;50.562;7.262;2023-04-30T13:24:25;1.08;;;0.40;;
25549;SDS011;13444;50.562;7.262;2023-04-30T13:26:51;0.50;;;0.40;;
25549;SDS011;13444;50.562;7.262;2023-04-30T13:29:17;0.85;;;0.60;;
25549;SDS011;13444;50.562;7.262;2023-04-30T13:31:44;0.95;;;0.50;;
25549;SDS011;13444;50.562;7.262;2023-04-30T13:34:12;0.57;;;0.50;;
25549;SDS011;13444;50.562;7.262;2023-04-30T13:36:38;0.68;;;0.30;;
25549;SDS011;13444;50.562;7.262;2023-04-30T13:39:04;2.00;;;0.57;;
25549;SDS011;13444;50.562;7.262;2023-04-30T13:41:30;0.50;;;0.47;;
25549;SDS011;13444;50.562;7.262;2023-04-30T13:43:56;1.00;;;0.65;;
25549;SDS011;13444;50.562;7.262;2023-04-30T13:46:22;1.17;;;0.60;;
25549;SDS011;13444;50.562;7.262;2023-04-30T13:48:48;0.30;;;0.30;;
25549;SDS011;13444;50.562;7.262;2023-04-30T13:51:13;2.10;;;0.50;;
25549;SDS011;13444;50.562;7.262;2023-04-30T13:53:39;0.93;;;0.50;;
25549;SDS011;13444;50.562;7.262;2023-04-30T13:56:05;0.52;;;0.52;;
25549;SDS011;13444;50.562;7.262;2023-04-30T13:58:31;1.45;;;0.50;;
25549;SDS011;13444;50.562;7.262;2023-04-30T14:00:56;1.67;;;0.50;;
25549;SDS011;13444;50.562;7.262;2023-04-30T14:03:22;0.80;;;0.38;;
25549;SDS011;13444;50.562;7.262;2023-04-30T14:05:47;0.77;;;0.50;;
25549;SDS011;13444;50.562;7.262;2023-04-30T14:08:13;0.57;;;0.50;;
25549;SDS011;13444;50.562;7.262;2023-04-30T14:10:39;0.30;;;0.30;;
25549;SDS011;13444;50.562;7.262;2023-04-30T14:13:04;1.38;;;0.40;;
25549;SDS011;13444;50.562;7.262;2023-04-30T14:15:30;1.25;;;0.63;;
25549;SDS011;13444;50.562;7.262;2023-04-30T14:17:56;1.17;;;0.60;;
25549;SDS011;13444;50.562;7.262;2023-04-30T14:20:22;1.23;;;0.70;;
25549;SDS011;13444;50.562;7.262;2023-04-30T14:22:49;0.80;;;0.50;;
25549;SDS011;13444;50.562;7.262;2023-04-30T14:25:14;0.73;;;0.45;;
25549;SDS011;13444;50.562;7.262;2023-04-30T14:27:40;1.85;;;0.40;;
25549;SDS011;13444;50.562;7.262;2023-04-30T14:30:06;1.50;;;0.88;;
25549;SDS011;13444;50.562;7.262;2023-04-30T14:32:32;1.20;;;0.80;;
25549;SDS011;13444;50.562;7.262;2023-04-30T14:34:57;1.42;;;0.77;;
25549;SDS011;13444;50.562;7.262;2023-04-30T14:37:23;3.28;;;1.70;;
25549;SDS011;13444;50.562;7.262;2023-04-30T14:39:49;1.20;;;0.88;;
25549;SDS011;13444;50.562;7.262;2023-04-30T14:42:14;0.98;;;0.80;;
25549;SDS011;13444;50.562;7.262;2023-04-30T14:44:40;0.85;;;0.63;;
25549;SDS011;13444;50.562;7.262;2023-04-30T14:47:05;0.95;;;0.63;;
25549;SDS011;13444;50.562;7.262;2023-04-30T14:49:31;0.70;;;0.50;;
25549;SDS011;13444;50.562;7.262;2023-04-30T14:51:57;0.50;;;0.50;;